Bahla, Oman
Current Conditions -  °F | °C
As of 3:50 PM on Tuesday 27 Jan 2015 (Local Time) from OOMS Reporting Station
Clear Clear  
Wind Chill: 73°   Ceiling: Unl
Heat Index: 73°   Visibility: 6mi
Dew Point: 52°   Wind: 8mph
Humidity: 47%   Direction: 50°NE
Pressure: 30.09"   Gusts: NA
Location:  22.97°N, 57.3°E
Report Text: OOMS 271150Z 05007KT CAVOK 23/11 Q1019 NOSIG
Loading
Personal Weather Stations






























Interactive Weather Map New forecast layout! Learn more

10-Day Weather Forecast

Advertisements
Track Severe Weather on mobile